Time;durP1;ratioP1;P1;durP2;ratioP2;P2;SDS_P1;SDS_P2;PMS_P1;PMS_P2;Temp;Humidity;BMP_temperature;BMP_pressure;BME280_temperature;BME280_humidity;BME280_pressure;Samples;Min_cycle;Max_cycle;Signal;HPM_P1;HPM_P2
2024/04/24 00:00:25;;;;;;;9.93;2.00;;;;;;;3.29;nan;100629.75;5370600;26;20768;-79
2024/04/24 00:02:54;;;;;;;14.20;2.43;;;;;;;2.71;nan;100543.75;5368340;26;20257;-79
2024/04/24 00:05:22;;;;;;;11.47;2.20;;;;;;;4.08;nan;100724.16;5396510;26;20241;-79
2024/04/24 00:07:48;;;;;;;18.50;3.00;;;;;;;4.63;nan;100831.75;5367573;26;20471;-78
2024/04/24 00:10:14;;;;;;;16.80;2.90;;;;;;;4.14;nan;100734.16;5366625;26;20540;-78
2024/04/24 00:12:40;;;;;;;15.40;3.33;;;;;;;3.69;nan;100634.44;5399082;26;20628;-77
2024/04/24 00:15:06;;;;;;;10.90;2.20;;;;;;;3.13;nan;100516.53;5424188;26;20467;-78
2024/04/24 00:17:31;;;;;;;14.15;2.40;;;;;;;4.52;nan;100745.25;5375147;26;20549;-78
2024/04/24 00:19:57;;;;;;;12.93;2.93;;;;;;;4.38;nan;100735.22;5397184;26;20824;-78
2024/04/24 00:22:22;;;;;;;13.13;1.93;;;;;;;4.33;nan;100716.28;5402452;26;20247;-78
2024/04/24 00:24:48;;;;;;;12.03;1.93;;;;;;;4.69;nan;100746.13;5398729;26;20384;-79
2024/04/24 00:27:13;;;;;;;12.00;2.50;;;;;;;3.99;nan;100649.00;5374626;26;20267;-77
2024/04/24 00:29:38;;;;;;;11.47;2.33;;;;;;;2.61;nan;100455.63;5398762;26;19937;-78
2024/04/24 00:32:07;;;;;;;15.80;2.23;;;;;;;4.00;nan;100684.31;5400871;26;20260;-78
2024/04/24 00:34:32;;;;;;;10.20;1.83;;;;;;;4.81;nan;100797.97;5397499;26;20288;-78
2024/04/24 00:36:58;;;;;;;16.00;2.40;;;;;;;5.32;nan;100899.78;5367452;26;20482;-78
2024/04/24 00:39:24;;;;;;;9.17;1.67;;;;;;;4.71;nan;100805.22;5396750;26;20380;-78
2024/04/24 00:41:52;;;;;;;12.57;2.07;;;;;;;3.24;nan;100550.69;5375363;26;20305;-77
2024/04/24 00:44:19;;;;;;;12.03;1.90;;;;;;;3.96;nan;100669.69;5398561;26;20470;-78
2024/04/24 00:46:46;;;;;;;10.47;2.03;;;;;;;2.92;nan;100527.47;5399614;26;20575;-78
2024/04/24 00:49:12;;;;;;;8.03;2.47;;;;;;;3.43;nan;100585.91;5399499;26;20589;-78
2024/04/24 00:51:40;;;;;;;8.50;1.60;;;;;;;4.96;nan;100864.59;5375408;26;20475;-78
2024/04/24 00:54:07;;;;;;;10.00;1.80;;;;;;;4.42;nan;100744.53;5373941;26;20524;-78
2024/04/24 00:56:33;;;;;;;8.50;1.97;;;;;;;4.10;nan;100670.91;5425299;26;20476;-78
2024/04/24 00:58:59;;;;;;;8.43;2.03;;;;;;;4.67;nan;100783.47;5374381;26;20529;-78
2024/04/24 01:01:25;;;;;;;9.53;1.90;;;;;;;4.50;nan;100723.31;5399757;26;20242;-78
2024/04/24 01:03:51;;;;;;;14.73;2.10;;;;;;;4.59;nan;100771.97;5366350;26;20513;-79
2024/04/24 01:06:16;;;;;;;7.90;1.47;;;;;;;3.51;nan;100608.00;5402706;26;20470;-79
2024/04/24 01:08:42;;;;;;;10.30;1.93;;;;;;;4.55;nan;100770.66;5400023;26;20241;-79
2024/04/24 01:11:08;;;;;;;9.80;1.40;;;;;;;4.40;nan;100677.50;5381224;26;20281;-79
2024/04/24 01:13:33;;;;;;;8.33;1.67;;;;;;;4.25;nan;100677.25;5429549;26;20478;-79
2024/04/24 01:16:14;;;;;;;8.17;1.70;;;;;;;2.30;nan;100349.41;5375355;26;20300;-79
2024/04/24 01:18:48;;;;;;;6.40;1.10;;;;;;;3.69;nan;100609.72;5403705;26;21209;-79
2024/04/24 01:21:14;;;;;;;13.77;1.83;;;;;;;3.07;nan;100499.44;5401061;26;20492;-79
2024/04/24 01:23:58;;;;;;;8.47;1.37;;;;;;;5.51;nan;100879.19;5400994;26;20458;-79
2024/04/24 01:26:37;;;;;;;5.60;1.10;;;;;;;2.54;nan;100428.94;5426429;26;20475;-79
2024/04/24 01:29:03;;;;;;;8.53;1.00;;;;;;;3.79;nan;100640.47;5404423;26;20549;-79
2024/04/24 01:31:28;;;;;;;;;;;;;;;5.38;nan;100882.31;5381334;26;20450;-79
2024/04/24 01:33:56;;;;;;;;;;;;;;;5.52;nan;100879.00;5399282;26;20289;-79
2024/04/24 01:36:21;;;;;;;;;;;;;;;5.39;nan;100881.34;5395965;26;19932;-79
2024/04/24 01:38:49;;;;;;;;;;;;;;;5.34;nan;100883.66;5399998;26;19972;-79
2024/04/24 01:41:14;;;;;;;;;;;;;;;5.41;nan;100890.00;5375815;26;19933;-78
2024/04/24 01:43:40;;;;;;;;;;;;;;;5.47;nan;100889.34;5422180;26;19925;-78
2024/04/24 01:46:05;;;;;;;;;;;;;;;5.36;nan;100885.16;5401192;26;19934;-79
2024/04/24 01:48:30;;;;;;;;;;;;;;;5.38;nan;100893.81;5398072;26;19926;-79
2024/04/24 01:50:56;;;;;;;;;;;;;;;5.47;nan;100893.78;5372573;26;19936;-79
2024/04/24 01:53:21;;;;;;;;;;;;;;;5.54;nan;100884.19;5398492;26;19967;-79
2024/04/24 01:55:46;;;;;;;;;;;;;;;5.50;nan;100888.19;5373066;26;19926;-79
2024/04/24 01:58:14;;;;;;;;;;;;;;;5.49;nan;100905.13;5376352;26;19937;-82
2024/04/24 02:00:40;;;;;;;;;;;;;;;5.46;nan;100919.56;5401100;26;19925;-82
2024/04/24 02:03:08;;;;;;;;;;;;;;;5.33;nan;100925.38;5425983;26;19941;-81
2024/04/24 02:05:33;;;;;;;;;;;;;;;5.34;nan;100937.66;5427998;26;20266;-81
2024/04/24 02:07:59;;;;;;;;;;;;;;;5.39;nan;100937.19;5375715;26;19929;-81
2024/04/24 02:10:24;;;;;;;;;;;;;;;5.26;nan;100931.50;5377357;26;20377;-80
2024/04/24 02:12:50;;;;;;;;;;;;;;;5.34;nan;100923.53;5396389;26;19992;-80
2024/04/24 02:15:15;;;;;;;;;;;;;;;5.37;nan;100928.53;5376151;26;19925;-79
2024/04/24 02:17:41;;;;;;;;;;;;;;;5.43;nan;100917.25;5410221;21;19981;-73
2024/04/24 02:20:06;;;;;;;;;;;;;;;5.40;nan;100904.28;5400392;26;20378;-72
2024/04/24 02:22:31;;;;;;;;;;;;;;;5.32;nan;100896.25;5391773;26;19941;-73
2024/04/24 02:27:40;;;;;;;6.83;0.90;;;;;;;5.27;nan;100907.41;5365519;26;20343;-73
2024/04/24 02:30:06;;;;;;;4.00;1.10;;;;;;;4.70;nan;100803.56;5365037;26;20499;-73
2024/04/24 02:32:32;;;;;;;5.97;1.20;;;;;;;4.26;nan;100759.41;5365189;26;20428;-72
2024/04/24 02:34:57;;;;;;;6.43;1.40;;;;;;;4.08;nan;100717.03;5359043;26;20965;-72
2024/04/24 02:37:22;;;;;;;9.43;1.30;;;;;;;4.70;nan;100814.19;5390861;26;20311;-72
2024/04/24 02:39:48;;;;;;;5.40;1.10;;;;;;;4.98;nan;100852.81;5365805;26;20554;-72
2024/04/24 02:42:13;;;;;;;6.27;1.30;;;;;;;4.47;nan;100787.38;5366064;26;20300;-73
2024/04/24 02:44:39;;;;;;;6.17;1.30;;;;;;;4.42;nan;100795.81;5362910;26;20249;-73
2024/04/24 02:47:04;;;;;;;;;;;;;;;5.20;nan;100887.75;5359882;26;20339;-73
2024/04/24 02:49:29;;;;;;;;;;;;;;;5.20;nan;100885.09;5360000;26;19930;-73
2024/04/24 02:51:54;;;;;;;;;;;;;;;5.47;nan;100893.78;5366608;26;19999;-74
2024/04/24 02:54:20;;;;;;;;;;;;;;;5.28;nan;100884.31;5394700;26;19937;-73
2024/04/24 02:56:45;;;;;;;;;;;;;;;5.42;nan;100875.69;5365841;26;19930;-73
2024/04/24 02:59:10;;;;;;;;;;;;;;;5.36;nan;100857.72;5366887;26;19933;-74
2024/04/24 03:01:36;;;;;;;;;;;;;;;5.41;nan;100839.44;5369082;26;19964;-72
2024/04/24 03:04:01;;;;;;;;;;;;;;;5.29;nan;100835.41;5365109;26;19929;-73
2024/04/24 03:06:26;;;;;;;;;;;;;;;5.29;nan;100832.75;5365837;26;19933;-73
2024/04/24 03:08:51;;;;;;;;;;;;;;;5.42;nan;100831.28;5367853;26;19937;-73
2024/04/24 03:11:17;;;;;;;;;;;;;;;5.26;nan;100833.91;5366056;26;20323;-73
2024/04/24 03:13:44;;;;;;;;;;;;;;;5.27;nan;100837.44;5366893;26;19930;-73
2024/04/24 03:16:09;;;;;;;;;;;;;;;5.37;nan;100832.78;5364513;26;19940;-73
2024/04/24 03:18:35;;;;;;;;;;;;;;;5.38;nan;100821.13;5365819;26;19937;-73
2024/04/24 03:21:00;;;;;;;;;;;;;;;5.37;nan;100814.97;5365819;26;19941;-72
2024/04/24 03:23:25;;;;;;;;;;;;;;;5.47;nan;100811.31;5353074;26;19930;-73
2024/04/24 03:25:50;;;;;;;;;;;;;;;5.46;nan;100821.13;5366324;26;20056;-73
2024/04/24 03:28:16;;;;;;;;;;;;;;;5.46;nan;100818.47;5366474;26;19938;-73
2024/04/24 03:30:41;;;;;;;;;;;;;;;5.29;nan;100811.50;5365623;26;19930;-73
2024/04/24 03:33:06;;;;;;;;;;;;;;;5.42;nan;100801.19;5358339;26;19937;-73
2024/04/24 03:35:32;;;;;;;;;;;;;;;5.38;nan;100789.22;5364026;26;19933;-73
2024/04/24 03:37:57;;;;;;;;;;;;;;;5.35;nan;100794.88;5365192;26;19936;-73
2024/04/24 03:40:22;;;;;;;;;;;;;;;4.69;nan;100663.75;5364303;26;19930;-73
2024/04/24 03:42:48;;;;;;;;;;;;;;;5.35;nan;100778.91;5365874;26;20312;-73
2024/04/24 03:45:13;;;;;;;;;;;;;;;5.43;nan;100781.56;5363141;26;19940;-73
2024/04/24 03:47:38;;;;;;;;;;;;;;;5.35;nan;100773.59;5360752;26;19934;-72
2024/04/24 03:50:04;;;;;;;;;;;;;;;5.33;nan;100764.97;5365031;26;19929;-72
2024/04/24 03:52:30;;;;;;;;;;;;;;;5.49;nan;100764.13;5365480;26;19930;-74
2024/04/24 03:54:55;;;;;;;;;;;;;;;5.38;nan;100763.47;5365875;26;19930;-73
2024/04/24 03:57:20;;;;;;;;;;;;;;;5.40;nan;100764.13;5365660;26;19938;-72
2024/04/24 03:59:46;;;;;;;;;;;;;;;5.37;nan;100760.97;5366299;26;19937;-73
2024/04/24 04:02:11;;;;;;;;;;;;;;;5.46;nan;100762.63;5366450;26;20283;-73
2024/04/24 04:04:36;;;;;;;;;;;;;;;5.41;nan;100752.50;5367026;26;19933;-74
2024/04/24 04:07:01;;;;;;;;;;;;;;;5.33;nan;100756.97;5365024;26;19935;-73
2024/04/24 04:09:27;;;;;;;;;;;;;;;5.38;nan;100752.81;5365730;26;20309;-72
2024/04/24 04:11:52;;;;;;;;;;;;;;;5.35;nan;100753.16;5362077;26;19945;-73
2024/04/24 04:14:17;;;;;;;;;;;;;;;5.19;nan;100747.84;5365061;26;19929;-73
2024/04/24 04:16:43;;;;;;;;;;;;;;;5.20;nan;100742.34;5365823;26;19965;-73
2024/04/24 04:19:08;;;;;;;;;;;;;;;5.24;nan;100752.66;5361445;26;19949;-73
2024/04/24 04:21:33;;;;;;;;;;;;;;;5.30;nan;100739.53;5365325;26;19930;-72
2024/04/24 04:23:58;;;;;;;;;;;;;;;5.26;nan;100737.34;5365615;26;19930;-73
2024/04/24 04:26:24;;;;;;;;;;;;;;;5.25;nan;100730.38;5364331;26;20275;-74
2024/04/24 04:28:49;;;;;;;;;;;;;;;5.24;nan;100728.75;5363051;26;19937;-72
2024/04/24 04:31:14;;;;;;;;;;;;;;;5.32;nan;100729.56;5366005;26;20435;-73
2024/04/24 04:33:40;;;;;;;;;;;;;;;5.33;nan;100727.72;5394876;26;19936;-73
2024/04/24 04:36:05;;;;;;;;;;;;;;;5.31;nan;100745.66;5363732;26;20274;-72
2024/04/24 04:38:31;;;;;;;;;;;;;;;5.35;nan;100747.00;5362987;26;19937;-72
2024/04/24 04:40:56;;;;;;;;;;;;;;;5.28;nan;100746.00;5368768;26;19930;-74
2024/04/24 04:43:21;;;;;;;;;;;;;;;5.44;nan;100740.69;5367534;26;19941;-73
2024/04/24 04:45:47;;;;;;;;;;;;;;;5.41;nan;100736.53;5370037;26;20267;-72
2024/04/24 04:48:12;;;;;;;;;;;;;;;5.36;nan;100727.41;5396981;26;19929;-72
2024/04/24 04:50:37;;;;;;;;;;;;;;;5.45;nan;100731.69;5368969;26;20740;-72
2024/04/24 04:53:03;;;;;;;;;;;;;;;5.38;nan;100726.22;5392890;26;19937;-72
2024/04/24 04:55:28;;;;;;;;;;;;;;;5.45;nan;100726.38;5393156;26;19929;-74
2024/04/24 04:57:54;;;;;;;;;;;;;;;5.69;nan;100714.84;5370476;26;19929;-74
2024/04/24 05:00:19;;;;;;;;;;;;;;;5.69;nan;100722.00;5369050;26;20501;-72
2024/04/24 05:02:44;;;;;;;9.60;1.40;;;;;;;4.97;nan;100617.22;5368118;26;19930;-72
2024/04/24 05:05:10;;;;;;;15.03;2.37;;;;;;;5.70;nan;100726.31;5394865;26;20242;-72
2024/04/24 05:07:36;;;;;;;8.90;1.83;;;;;;;4.85;nan;100570.72;5368736;26;20245;-72
2024/04/24 05:10:02;;;;;;;5.90;1.20;;;;;;;5.13;nan;100629.69;5366918;26;20518;-73
2024/04/24 05:12:28;;;;;;;5.70;1.10;;;;;;;5.16;nan;100613.38;5363333;26;20614;-73
2024/04/24 05:14:53;;;;;;;4.20;0.90;;;;;;;4.83;nan;100553.28;5369138;26;20467;-73
2024/04/24 05:17:18;;;;;;;4.97;1.00;;;;;;;4.89;nan;100560.59;5365988;26;20297;-72
2024/04/24 05:19:44;;;;;;;7.23;1.60;;;;;;;5.71;nan;100693.41;5365888;26;20589;-73
2024/04/24 05:22:09;;;;;;;6.03;1.00;;;;;;;4.90;nan;100519.75;5363882;26;20238;-73
2024/04/24 05:24:35;;;;;;;;;;;;;;;5.90;nan;100671.69;5362929;26;20277;-73
2024/04/24 05:29:45;;;;;;;4.80;1.10;;;;;;;5.97;nan;100653.25;5360948;26;20014;-72
2024/04/24 05:32:11;;;;;;;5.20;0.90;;;;;;;4.81;nan;100446.34;5367375;26;20914;-72
2024/04/24 05:34:36;;;;;;;7.60;0.97;;;;;;;5.17;nan;100510.53;5393734;26;20553;-72
2024/04/24 05:37:02;;;;;;;6.27;1.43;;;;;;;5.81;nan;100607.03;5368178;26;20242;-72
2024/04/24 05:39:27;;;;;;;7.30;1.50;;;;;;;5.19;nan;100498.72;5363496;26;20734;-71
2024/04/24 05:41:52;;;;;;;;;;;;;;;6.10;nan;100627.75;5367170;26;20250;-72
2024/04/24 05:44:18;;;;;;;7.00;1.30;;;;;;;5.63;nan;100558.53;5368759;26;20280;-72
2024/04/24 05:46:43;;;;;;;10.60;1.60;;;;;;;5.47;nan;100510.72;5366973;26;20353;-72
2024/04/24 05:49:09;;;;;;;;;;;;;;;6.27;nan;100616.97;5363935;26;20254;-72
2024/04/24 05:51:34;;;;;;;7.55;1.70;;;;;;;6.39;nan;100617.41;5392300;26;19932;-72
2024/04/24 05:54:00;;;;;;;;;;;;;;;6.11;nan;100631.22;5367742;26;20270;-73
2024/04/24 05:56:25;;;;;;;6.60;0.95;;;;;;;5.09;nan;100515.84;5364978;26;20254;-72
2024/04/24 05:58:50;;;;;;;;;;;;;;;5.81;nan;100667.41;5365634;26;20242;-72
2024/04/24 06:01:16;;;;;;;;;;;;;;;5.85;nan;100672.22;5357875;26;19925;-71
2024/04/24 06:03:41;;;;;;;;;;;;;;;5.87;nan;100656.94;5362064;26;19957;-71
2024/04/24 06:06:06;;;;;;;;;;;;;;;5.90;nan;100661.06;5365659;26;20346;-71
2024/04/24 06:08:31;;;;;;;;;;;;;;;6.06;nan;100655.69;5365540;26;19925;-71
2024/04/24 06:10:57;;;;;;;;;;;;;;;6.09;nan;100652.69;5369641;26;19953;-71
2024/04/24 06:13:22;;;;;;;;;;;;;;;6.03;nan;100648.06;5364686;26;19932;-72
2024/04/24 06:15:47;;;;;;;;;;;;;;;6.03;nan;100660.56;5364731;26;20005;-71
2024/04/24 06:18:13;;;;;;;;;;;;;;;5.80;nan;100665.75;5359231;26;19933;-72
2024/04/24 06:20:38;;;;;;;;;;;;;;;5.72;nan;100676.44;5365384;26;19937;-71
2024/04/24 06:23:03;;;;;;;;;;;;;;;5.73;nan;100672.75;5363102;26;20465;-71
2024/04/24 06:25:29;;;;;;;;;;;;;;;5.86;nan;100665.91;5367581;26;20231;-71
2024/04/24 06:27:54;;;;;;;;;;;;;;;5.95;nan;100669.38;5365602;26;19937;-71
2024/04/24 06:30:19;;;;;;;;;;;;;;;6.02;nan;100677.53;5364708;26;19925;-72
2024/04/24 06:32:45;;;;;;;;;;;;;;;6.09;nan;100667.84;5363019;26;20379;-72
2024/04/24 06:35:10;;;;;;;;;;;;;;;6.04;nan;100664.84;5364005;26;19957;-71
2024/04/24 06:37:36;;;;;;;;;;;;;;;6.10;nan;100658.84;5362974;26;19937;-71
2024/04/24 06:40:01;;;;;;;;;;;;;;;6.26;nan;100660.59;5367245;26;19925;-72
2024/04/24 06:42:28;;;;;;;;;;;;;;;6.28;nan;100658.59;5367706;26;19934;-72
2024/04/24 06:44:53;;;;;;;;;;;;;;;6.30;nan;100654.72;5366250;26;19925;-72
2024/04/24 06:47:18;;;;;;;;;;;;;;;6.47;nan;100671.47;5364038;26;20015;-72
2024/04/24 06:49:43;;;;;;;;;;;;;;;6.52;nan;100669.09;5366594;26;20297;-71
2024/04/24 06:52:09;;;;;;;;;;;;;;;6.65;nan;100675.69;5366671;26;19932;-73
2024/04/24 06:54:34;;;;;;;;;;;;;;;6.55;nan;100665.25;5366170;26;19926;-72
2024/04/24 06:56:59;;;;;;;;;;;;;;;6.57;nan;100664.06;5370475;26;19932;-72
2024/04/24 06:59:25;;;;;;;;;;;;;;;6.64;nan;100664.19;5367300;26;20175;-72
2024/04/24 07:01:50;;;;;;;;;;;;;;;6.85;nan;100668.84;5362826;26;19933;-72
2024/04/24 07:04:15;;;;;;;;;;;;;;;6.92;nan;100658.34;5364923;26;19925;-72
2024/04/24 07:06:41;;;;;;;;;;;;;;;7.08;nan;100644.84;5364989;26;19933;-71
2024/04/24 07:09:06;;;;;;;;;;;;;;;7.11;nan;100635.66;5394326;26;19932;-72
2024/04/24 07:11:32;;;;;;;;;;;;;;;7.12;nan;100626.66;5364567;26;20398;-71
2024/04/24 07:13:57;;;;;;;;;;;;;;;7.22;nan;100605.88;5390772;26;19945;-71
2024/04/24 07:16:22;;;;;;;;;;;;;;;7.31;nan;100588.75;5367375;26;19932;-71
2024/04/24 07:18:50;;;;;;;;;;;;;;;7.34;nan;100582.22;5368069;26;19942;-71
2024/04/24 07:21:15;;;;;;;11.13;1.77;;;;;;;7.51;nan;100578.34;5361021;26;20132;-72
2024/04/24 07:23:41;;;;;;;8.43;1.33;;;;;;;6.77;nan;100408.53;5363314;26;20527;-72
2024/04/24 07:26:06;;;;;;;7.87;1.20;;;;;;;7.02;nan;100462.38;5365083;26;20791;-72
2024/04/24 07:28:32;;;;;;;9.10;1.23;;;;;;;7.44;nan;100542.75;5365180;26;20276;-73
2024/04/24 07:30:58;;;;;;;6.93;1.50;;;;;;;6.85;nan;100458.25;5367109;26;20249;-71
2024/04/24 07:33:23;;;;;;;7.93;1.10;;;;;;;7.53;nan;100549.66;5365928;26;20468;-72
2024/04/24 07:35:49;;;;;;;5.90;1.13;;;;;;;7.08;nan;100473.31;5363795;26;20311;-71
2024/04/24 07:38:15;;;;;;;5.07;1.00;;;;;;;7.00;nan;100460.91;5360470;26;20376;-71
2024/04/24 07:40:41;;;;;;;8.40;1.50;;;;;;;7.23;nan;100488.31;5364894;26;20292;-73
2024/04/24 07:43:06;;;;;;;5.40;1.00;;;;;;;7.66;nan;100525.78;5361638;26;20798;-71
2024/04/24 07:45:34;;;;;;;8.93;1.20;;;;;;;6.96;nan;100449.78;5361956;26;20238;-72
2024/04/24 07:47:59;;;;;;;4.80;1.00;;;;;;;7.61;nan;100544.22;5364072;26;20301;-71
2024/04/24 07:50:25;;;;;;;6.40;0.93;;;;;;;6.38;nan;100363.50;5391624;26;20469;-72
2024/04/24 07:52:50;;;;;;;6.97;0.90;;;;;;;7.69;nan;100553.94;5361775;26;20257;-71
2024/04/24 07:55:16;;;;;;;5.00;0.80;;;;;;;7.58;nan;100517.06;5361686;26;20241;-71
2024/04/24 07:57:41;;;;;;;6.33;1.00;;;;;;;7.12;nan;100443.44;5364603;26;20677;-73
2024/04/24 08:00:07;;;;;;;5.70;1.00;;;;;;;7.45;nan;100462.50;5362332;26;20718;-73
2024/04/24 08:02:34;;;;;;;8.33;1.20;;;;;;;7.89;nan;100522.97;5362647;26;20237;-72
2024/04/24 08:05:00;;;;;;;8.23;1.30;;;;;;;7.05;nan;100377.69;5357319;26;20597;-72
2024/04/24 08:07:25;;;;;;;5.83;0.70;;;;;;;7.92;nan;100553.81;5364063;26;20470;-72
2024/04/24 08:09:51;;;;;;;4.50;1.00;;;;;;;7.72;nan;100539.41;5363137;26;20242;-72
2024/04/24 08:12:16;;;;;;;4.40;0.90;;;;;;;7.47;nan;100526.38;5364897;26;20363;-72
2024/04/24 08:14:41;;;;;;;5.20;0.80;;;;;;;7.13;nan;100450.44;5363884;26;20786;-73
2024/04/24 08:17:07;;;;;;;5.53;1.03;;;;;;;6.10;nan;100268.25;5393075;21;20256;-78
2024/04/24 08:19:32;;;;;;;4.50;0.97;;;;;;;6.48;nan;100318.75;5420224;26;20240;-78
2024/04/24 08:21:58;;;;;;;3.73;0.80;;;;;;;5.79;nan;100198.38;5393916;26;20921;-77
2024/04/24 08:24:23;;;;;;;4.47;0.90;;;;;;;5.73;nan;100188.44;5358345;26;20283;-78
2024/04/24 08:26:50;;;;;;;4.17;0.83;;;;;;;5.10;nan;100086.88;5388870;26;20569;-78
2024/04/24 08:29:16;;;;;;;6.07;1.00;;;;;;;6.72;nan;100346.94;5364883;26;20714;-78
2024/04/24 08:31:41;;;;;;;4.97;0.90;;;;;;;6.35;nan;100297.25;5386161;26;20468;-78
2024/04/24 08:34:06;;;;;;;5.97;1.07;;;;;;;6.24;nan;100257.78;5388105;26;20250;-79
2024/04/24 08:36:32;;;;;;;4.30;0.70;;;;;;;5.36;nan;100177.69;5385689;26;20770;-78
2024/04/24 08:38:59;;;;;;;6.10;1.17;;;;;;;5.38;nan;100161.53;5363978;26;20304;-78
2024/04/24 08:41:26;;;;;;;8.50;1.30;;;;;;;7.14;nan;100451.25;5358150;26;20241;-79
2024/04/24 08:43:54;;;;;;;8.03;1.70;;;;;;;4.98;nan;100092.63;5360831;26;21028;-78
2024/04/24 08:46:19;;;;;;;7.70;1.03;;;;;;;6.47;nan;100303.78;5360534;26;20934;-79
2024/04/24 08:48:45;;;;;;;8.43;1.20;;;;;;;6.53;nan;100299.53;5391807;26;20451;-78
2024/04/24 08:51:12;;;;;;;12.37;0.90;;;;;;;5.76;nan;100143.66;5362043;26;21403;-78
2024/04/24 08:53:58;;;;;;;6.60;1.13;;;;;;;5.64;nan;100130.00;5383655;26;20253;-78
2024/04/24 08:56:29;;;;;;;4.57;0.80;;;;;;;8.17;nan;100535.59;5386267;26;20470;-78
2024/04/24 08:59:02;;;;;;;4.43;1.00;;;;;;;6.73;nan;100337.09;5358707;26;20476;-78
2024/04/24 09:01:31;;;;;;;4.83;0.90;;;;;;;4.78;nan;100000.34;5388115;26;20523;-79
2024/04/24 09:04:03;;;;;;;4.10;0.90;;;;;;;6.85;nan;100372.09;5382851;26;20472;-78
2024/04/24 09:06:31;;;;;;;5.37;1.10;;;;;;;6.16;nan;100233.91;5356108;26;20619;-78
2024/04/24 09:08:58;;;;;;;5.13;1.10;;;;;;;6.50;nan;100242.13;5386200;26;20479;-78
2024/04/24 09:11:25;;;;;;;5.60;1.07;;;;;;;6.01;nan;100170.84;5362059;26;20530;-79
2024/04/24 09:13:52;;;;;;;6.60;1.00;;;;;;;8.37;nan;100536.59;5381041;26;20548;-79
2024/04/24 09:16:21;;;;;;;5.10;1.30;;;;;;;8.42;nan;100538.75;5357512;26;20561;-79
2024/04/24 09:19:02;;;;;;;3.57;0.70;;;;;;;5.22;nan;100032.22;5387947;26;20467;-79
2024/04/24 09:21:31;;;;;;;5.40;1.00;;;;;;;5.04;nan;100018.50;5361269;26;20486;-78
2024/04/24 09:23:58;;;;;;;4.10;0.70;;;;;;;7.01;nan;100282.06;5384785;26;20518;-79
2024/04/24 09:26:24;;;;;;;6.40;0.80;;;;;;;5.27;nan;99989.16;5364570;26;20475;-79
2024/04/24 09:28:50;;;;;;;6.93;1.00;;;;;;;6.77;nan;100215.78;5361663;26;20961;-79
2024/04/24 09:31:16;;;;;;;5.70;1.00;;;;;;;5.97;nan;100065.75;5360564;26;20888;-78
2024/04/24 09:33:42;;;;;;;5.83;0.80;;;;;;;6.12;nan;100116.28;5360296;26;20468;-79
2024/04/24 09:36:08;;;;;;;5.40;1.00;;;;;;;7.58;nan;100336.41;5369483;26;20990;-79
2024/04/24 09:38:33;;;;;;;6.37;1.00;;;;;;;5.78;nan;100008.56;5364501;26;20369;-79
2024/04/24 09:41:00;;;;;;;5.60;0.70;;;;;;;7.00;nan;100213.78;5358842;26;20576;-79
2024/04/24 09:43:30;;;;;;;5.20;0.80;;;;;;;5.71;nan;100044.94;5386953;26;21087;-79
2024/04/24 09:45:59;;;;;;;3.90;0.80;;;;;;;7.43;nan;100274.25;5386962;26;20514;-78
2024/04/24 09:48:27;;;;;;;4.13;0.80;;;;;;;6.46;nan;100158.25;5369887;26;20510;-79
2024/04/24 09:50:53;;;;;;;6.20;1.00;;;;;;;5.40;nan;100003.41;5363240;26;20533;-79
2024/04/24 09:53:19;;;;;;;5.50;0.80;;;;;;;6.62;nan;100215.00;5385888;26;21176;-79
2024/04/24 09:56:08;;;;;;;4.73;1.20;;;;;;;8.07;nan;100407.69;5361323;26;20245;-79
2024/04/24 09:58:37;;;;;;;6.97;0.90;;;;;;;7.29;nan;100273.34;5350068;26;20467;-79
2024/04/24 10:01:07;;;;;;;4.73;0.70;;;;;;;6.36;nan;100117.78;5362701;26;21212;-78
2024/04/24 10:03:35;;;;;;;5.93;1.07;;;;;;;6.86;nan;100182.66;5368792;26;21043;-79
2024/04/24 10:06:02;;;;;;;6.23;1.00;;;;;;;7.24;nan;100233.06;5364996;26;20909;-78
2024/04/24 10:08:32;;;;;;;15.53;1.33;;;;;;;6.81;nan;100113.09;5369140;26;21994;-78
2024/04/24 10:11:01;;;;;;;6.03;0.80;;;;;;;7.47;nan;100212.31;5370140;26;20544;-78
2024/04/24 10:13:48;;;;;;;6.10;1.10;;;;;;;7.02;nan;100102.38;5361847;26;20492;-79
2024/04/24 10:16:14;;;;;;;6.37;1.17;;;;;;;6.85;nan;100151.66;5391955;26;20546;-78
2024/04/24 10:18:40;;;;;;;5.27;0.90;;;;;;;8.09;nan;100378.91;5363468;26;20474;-78
2024/04/24 10:21:08;;;;;;;4.87;1.00;;;;;;;7.67;nan;100249.00;5368028;26;20528;-78
2024/04/24 10:23:35;;;;;;;6.37;1.20;;;;;;;7.72;nan;100278.59;5362938;26;20609;-78
2024/04/24 10:26:01;;;;;;;4.43;1.00;;;;;;;6.67;nan;100093.50;5392108;26;20531;-78
2024/04/24 10:28:27;;;;;;;7.07;0.80;;;;;;;7.18;nan;100127.13;5390427;26;20469;-78
2024/04/24 10:30:56;;;;;;;5.70;1.03;;;;;;;7.83;nan;100232.69;5360228;26;20513;-76
2024/04/24 10:33:22;;;;;;;6.23;0.93;;;;;;;8.04;nan;100311.06;5362197;26;20548;-77
2024/04/24 10:35:48;;;;;;;5.23;0.90;;;;;;;7.38;nan;100271.34;5355517;26;20484;-77
2024/04/24 10:38:15;;;;;;;3.53;0.70;;;;;;;7.17;nan;100258.81;5390464;26;20455;-76
2024/04/24 10:40:46;;;;;;;5.57;0.90;;;;;;;5.19;nan;100017.47;5388749;26;20314;-77
2024/04/24 10:43:14;;;;;;;6.70;0.97;;;;;;;6.88;nan;100318.41;5365086;26;20882;-77
2024/04/24 10:45:40;;;;;;;5.50;0.90;;;;;;;6.20;nan;100228.03;5363176;26;20475;-77
2024/04/24 10:48:10;;;;;;;5.27;0.90;;;;;;;6.28;nan;100197.81;5390863;26;20459;-77
2024/04/24 10:50:37;;;;;;;4.77;0.90;;;;;;;6.89;nan;100312.91;5364681;26;20337;-77
2024/04/24 10:53:03;;;;;;;7.80;0.90;;;;;;;5.84;nan;100175.53;5355723;26;21087;-77
2024/04/24 10:55:29;;;;;;;7.00;0.90;;;;;;;5.67;nan;100128.81;5360659;26;21188;-77
2024/04/24 10:57:55;;;;;;;4.40;0.80;;;;;;;7.61;nan;100525.53;5369496;26;20597;-77
2024/04/24 11:00:24;;;;;;;5.20;1.10;;;;;;;6.60;nan;100289.00;5386078;26;20225;-77
2024/04/24 11:02:55;;;;;;;3.90;0.80;;;;;;;5.32;nan;100117.03;5385922;26;20376;-77
2024/04/24 11:05:21;;;;;;;5.30;0.83;;;;;;;5.36;nan;100126.31;5363703;26;20478;-78
2024/04/24 11:08:01;;;;;;;4.10;0.70;;;;;;;4.63;nan;100033.00;5362660;26;21313;-77
2024/04/24 11:10:32;;;;;;;4.37;0.70;;;;;;;7.14;nan;100432.56;5357219;26;20522;-78
2024/04/24 11:12:58;;;;;;;5.50;0.80;;;;;;;4.87;nan;100044.41;5359937;26;20788;-78
2024/04/24 11:15:28;;;;;;;5.00;1.17;;;;;;;6.51;nan;100317.56;5368860;26;20464;-77
2024/04/24 11:17:54;;;;;;;4.70;0.80;;;;;;;5.06;nan;100107.66;5386652;26;20778;-77
2024/04/24 11:20:24;;;;;;;3.67;0.70;;;;;;;6.55;nan;100330.31;5359581;26;20804;-77
2024/04/24 11:22:50;;;;;;;;;;;;;;;7.70;nan;100523.59;5370279;26;20749;-78
2024/04/24 11:25:17;;;;;;;;;;;;;;;7.81;nan;100523.09;5393412;26;19933;-78
2024/04/24 11:27:43;;;;;;;;;;;;;;;7.82;nan;100526.59;5360804;26;20538;-78
2024/04/24 11:30:10;;;;;;;3.90;0.80;;;;;;;7.75;nan;100528.34;5363420;26;19925;-78
2024/04/24 11:32:37;;;;;;;4.07;0.70;;;;;;;6.08;nan;100256.97;5360179;26;20484;-78
2024/04/24 11:35:03;;;;;;;4.60;1.03;;;;;;;6.27;nan;100324.00;5354915;26;20472;-78
2024/04/24 11:37:29;;;;;;;4.50;0.90;;;;;;;6.32;nan;100265.66;5355398;26;20484;-78
2024/04/24 11:39:55;;;;;;;6.57;1.50;;;;;;;5.74;nan;100152.84;5387381;26;21167;-77
2024/04/24 11:42:20;;;;;;;6.20;1.13;;;;;;;6.02;nan;100212.44;5361957;26;20257;-78
2024/04/24 11:44:46;;;;;;;7.30;1.00;;;;;;;5.88;nan;100184.78;5370447;26;20282;-78
2024/04/24 11:47:15;;;;;;;9.90;1.40;;;;;;;5.98;nan;100162.41;5389008;26;20268;-79
2024/04/24 11:49:41;;;;;;;7.00;1.37;;;;;;;6.95;nan;100341.50;5362145;26;20751;-78
2024/04/24 11:52:11;;;;;;;10.27;1.73;;;;;;;6.64;nan;100287.59;5386981;26;20511;-78
2024/04/24 11:54:37;;;;;;;8.37;1.53;;;;;;;6.69;nan;100240.72;5370120;26;20245;-78
2024/04/24 11:57:03;;;;;;;7.47;1.43;;;;;;;5.74;nan;100107.59;5358741;26;20519;-78
2024/04/24 11:59:29;;;;;;;9.07;1.17;;;;;;;6.75;nan;100249.78;5362119;26;20515;-78
2024/04/24 12:01:55;;;;;;;5.70;1.00;;;;;;;7.39;nan;100295.16;5363594;26;20237;-78
2024/04/24 12:04:21;;;;;;;7.00;1.33;;;;;;;7.44;nan;100306.09;5362510;26;20865;-78
2024/04/24 12:06:47;;;;;;;7.90;0.90;;;;;;;6.30;nan;100153.16;5359576;26;20946;-78
2024/04/24 12:09:14;;;;;;;7.07;1.57;;;;;;;7.12;nan;100290.59;5363693;26;20528;-78
2024/04/24 12:11:44;;;;;;;7.90;1.00;;;;;;;7.63;nan;100301.13;5361918;26;20337;-78
2024/04/24 12:14:13;;;;;;;5.67;1.03;;;;;;;7.48;nan;100293.19;5360209;26;20482;-78
2024/04/24 12:16:39;;;;;;;7.10;1.73;;;;;;;8.81;nan;100522.19;5387289;26;20580;-78
2024/04/24 12:19:05;;;;;;;6.00;0.87;;;;;;;8.88;nan;100511.53;5365293;26;20510;-79